KHLG/HLG METAR and TAF weather

Enter ICAO airport designator
Station Type Date Time Source
KHLG METAR 2020/09/30 15:53 UTC NOAA

KHLG 301553Z 23013G23KT 10SM BKN027 BKN033 14/08 A2981 RMK AO2 SLP095 T01390078


Station Type Date Time Source
KHLG Decoded METAR 2020/09/30 15:53 UTC NOAA

WHEELING OHIO COUNTY AIRPORT, WV, United States (KHLG) 40-10N 080-39W 372M
Sep 30, 2020 - 11:53 AM EDT / 2020.09.30 1553 UTC
Wind: from the SW (230 degrees) at 15 MPH (13 KT) gusting to 26 MPH (23 KT):0
Visibility: 10 mile(s):0
Sky conditions: mostly cloudy
Temperature: 57.0 F (13.9 C)
Dew Point: 46.0 F (7.8 C)
Relative Humidity: 66%
Pressure (altimeter): 29.81 in. Hg (1009 hPa)
ob: KHLG 301553Z 23013G23KT 10SM BKN027 BKN033 14/08 A2981 RMK AO2 SLP095 T01390078
cycle: 16

Station Type Date Time Source
KHLG TAF 2020/09/30 12:30 UTC NOAA

TAF KHLG 301128Z 3012/0112 24005KT P6SM SCT010 BKN060
TEMPO 3012/3013 23009KT P6SM OVC010
FM301500 22015G25KT P6SM BKN045
FM010000 22010KT P6SM BKN060

Example: see airport list